Time;durP1;ratioP1;P1;durP2;ratioP2;P2;SDS_P1;SDS_P2;PMS_P1;PMS_P2;Temp;Humidity;BMP_temperature;BMP_pressure;BME280_temperature;BME280_humidity;BME280_pressure;Samples;Min_cycle;Max_cycle;Signal;HPM_P1;HPM_P2
2023/12/23 00:00:00;;;;;;;13.93;4.35;;;;;;;14.60;59.64;95724.75;5040918;28;20021;-24
2023/12/23 00:02:26;;;;;;;13.35;4.30;;;;;;;14.46;59.89;95715.38;5040194;28;20028;-24
2023/12/23 00:04:51;;;;;;;12.68;4.53;;;;;;;14.46;59.80;95723.56;5036977;28;20017;-24
2023/12/23 00:07:17;;;;;;;12.77;5.07;;;;;;;14.53;59.36;95712.25;5036877;28;20018;-24
2023/12/23 00:09:42;;;;;;;14.38;4.95;;;;;;;14.46;59.67;95718.09;5037251;28;20026;-24
2023/12/23 00:12:10;;;;;;;11.57;4.25;;;;;;;14.52;59.51;95718.19;5043938;28;20028;-24
2023/12/23 00:14:36;;;;;;;9.85;3.85;;;;;;;14.54;59.65;95716.50;5043719;28;20527;-24
2023/12/23 00:17:02;;;;;;;16.85;4.65;;;;;;;14.65;59.34;95716.69;5037448;28;20039;-24
2023/12/23 00:19:28;;;;;;;14.48;4.97;;;;;;;14.58;59.81;95722.53;5041854;28;20076;-24
2023/12/23 00:21:54;;;;;;;13.20;4.72;;;;;;;14.67;59.65;95716.22;5039747;28;20384;-24
2023/12/23 00:24:20;;;;;;;12.25;4.18;;;;;;;14.62;59.44;95708.69;5042917;28;20123;-24
2023/12/23 00:26:46;;;;;;;14.85;4.40;;;;;;;14.62;59.51;95711.41;5042800;28;20056;-24
2023/12/23 00:29:11;;;;;;;13.57;4.78;;;;;;;14.58;59.58;95722.53;5037810;28;20025;-24
2023/12/23 00:31:37;;;;;;;12.18;4.40;;;;;;;14.66;59.25;95712.00;5036425;28;20076;-24
2023/12/23 00:34:02;;;;;;;12.25;3.97;;;;;;;14.51;59.63;95711.97;5036505;28;20033;-24
2023/12/23 00:36:28;;;;;;;17.98;4.65;;;;;;;14.69;58.88;95717.28;5038745;28;20029;-24
2023/12/23 00:38:53;;;;;;;13.48;3.58;;;;;;;14.63;59.31;95716.41;5048270;28;20026;-24
2023/12/23 00:41:18;;;;;;;13.27;3.95;;;;;;;14.43;59.95;95715.53;5043505;28;20033;-24
2023/12/23 00:43:44;;;;;;;10.40;3.95;;;;;;;14.62;59.39;95722.31;5043640;28;20024;-24
2023/12/23 00:46:09;;;;;;;11.15;4.28;;;;;;;14.54;59.77;95721.97;5036133;28;20034;-24
2023/12/23 00:48:35;;;;;;;14.32;4.40;;;;;;;14.66;59.03;95729.13;5035840;28;20040;-24
2023/12/23 00:51:00;;;;;;;18.75;3.95;;;;;;;14.80;58.42;95727.63;5035524;28;20032;-24
2023/12/23 00:53:26;;;;;;;13.40;3.97;;;;;;;14.67;58.72;95721.69;5043213;28;20017;-24
2023/12/23 00:55:52;;;;;;;12.70;3.83;;;;;;;14.50;59.52;95726.84;5035164;28;20022;-24
2023/12/23 00:58:18;;;;;;;13.27;3.47;;;;;;;14.58;59.62;95736.19;5036140;28;20135;-24
2023/12/23 01:00:43;;;;;;;9.20;3.50;;;;;;;14.54;59.36;95730.13;5036614;28;20147;-24
2023/12/23 01:03:09;;;;;;;12.15;3.58;;;;;;;14.74;58.60;95730.25;5035467;28;20033;-24
2023/12/23 01:05:34;;;;;;;11.93;3.42;;;;;;;14.67;58.76;95746.25;5035594;28;20026;-24
2023/12/23 01:08:00;;;;;;;14.20;4.97;;;;;;;14.69;58.63;95728.19;5043488;28;20013;-24
2023/12/23 01:10:26;;;;;;;8.32;3.17;;;;;;;14.66;58.57;95731.84;5035664;28;20104;-24
2023/12/23 01:12:52;;;;;;;14.27;3.42;;;;;;;14.59;58.79;95740.38;5036306;28;20025;-23
2023/12/23 01:15:18;;;;;;;17.88;4.15;;;;;;;14.70;58.39;95746.06;5035899;28;20021;-24
2023/12/23 01:17:44;;;;;;;10.18;3.63;;;;;;;14.66;58.31;95745.50;5035485;28;20025;-24
2023/12/23 01:20:10;;;;;;;11.80;3.70;;;;;;;14.69;58.32;95750.03;5032504;28;20048;-24
2023/12/23 01:22:36;;;;;;;11.90;3.80;;;;;;;14.55;58.75;95756.22;5040872;28;20471;-24
2023/12/23 01:25:02;;;;;;;9.70;3.72;;;;;;;14.57;58.70;95753.00;5037538;28;20037;-24
2023/12/23 01:27:27;;;;;;;12.82;3.33;;;;;;;14.52;58.49;95768.06;5035467;28;20021;-24
2023/12/23 01:29:53;;;;;;;12.73;3.22;;;;;;;14.60;58.44;95752.81;5034874;28;20029;-24
2023/12/23 01:32:19;;;;;;;12.00;3.08;;;;;;;14.47;58.74;95765.97;5036862;28;20044;-24
2023/12/23 01:34:44;;;;;;;13.18;3.30;;;;;;;14.63;58.12;95770.22;5039834;28;20022;-24
2023/12/23 01:37:10;;;;;;;11.75;2.95;;;;;;;14.62;57.93;95771.44;5042683;28;20087;-24
2023/12/23 01:39:35;;;;;;;11.82;3.10;;;;;;;14.65;57.98;95773.25;5035190;28;20023;-24
2023/12/23 01:42:01;;;;;;;10.77;2.83;;;;;;;14.54;58.23;95781.97;5035192;28;20025;-24
2023/12/23 01:44:26;;;;;;;10.55;2.65;;;;;;;14.65;57.84;95786.88;5043290;28;20075;-24
2023/12/23 01:46:54;;;;;;;7.28;3.33;;;;;;;14.59;57.71;95786.78;5042067;28;20033;-24
2023/12/23 01:49:21;;;;;;;11.23;3.08;;;;;;;14.52;57.90;95783.66;5041336;28;20387;-24
2023/12/23 01:51:48;;;;;;;8.20;3.05;;;;;;;14.68;57.29;95792.19;5034978;28;20426;-24
2023/12/23 01:54:14;;;;;;;10.45;3.03;;;;;;;14.60;57.53;95788.28;5034212;28;20025;-24
2023/12/23 01:56:40;;;;;;;12.57;4.43;;;;;;;14.62;57.38;95790.56;5035686;28;20087;-24
2023/12/23 01:59:05;;;;;;;9.52;3.33;;;;;;;14.69;57.22;95792.94;5034437;28;20387;-24
2023/12/23 02:01:32;;;;;;;11.55;2.92;;;;;;;14.56;57.66;95795.91;5034477;28;20056;-24
2023/12/23 02:03:57;;;;;;;8.35;3.35;;;;;;;14.57;57.33;95793.94;5041676;28;20518;-24
2023/12/23 02:06:23;;;;;;;9.13;3.25;;;;;;;14.63;57.39;95808.44;5034294;28;20104;-24
2023/12/23 02:08:49;;;;;;;11.60;2.90;;;;;;;14.60;57.37;95801.94;5034706;28;20053;-24
2023/12/23 02:11:37;;;;;;;9.55;3.38;;;;;;;14.49;57.52;95804.44;5034876;28;20022;-24
2023/12/23 02:15:03;;;;;;;13.77;3.10;;;;;;;14.56;57.32;95795.91;5035287;28;20075;-24
2023/12/23 02:17:28;;;;;;;13.40;3.75;;;;;;;14.44;57.78;95799.66;4973651;28;20134;-24
2023/12/23 02:19:54;;;;;;;13.55;2.90;;;;;;;14.41;57.99;95797.84;4988220;28;20116;-24
2023/12/23 02:22:20;;;;;;;10.60;3.20;;;;;;;14.56;57.54;95800.63;4973696;28;20034;-24
2023/12/23 02:24:45;;;;;;;10.38;3.30;;;;;;;14.39;58.02;95805.72;4980495;28;20100;-24
2023/12/23 02:27:14;;;;;;;14.55;3.72;;;;;;;14.51;57.08;95804.75;4974825;28;20117;-24
2023/12/23 02:29:42;;;;;;;12.48;3.03;;;;;;;14.49;57.46;95807.19;4979613;28;20117;-24
2023/12/23 02:32:09;;;;;;;7.85;3.20;;;;;;;14.61;56.75;95810.88;4980833;28;20038;-24
2023/12/23 02:34:35;;;;;;;8.90;3.20;;;;;;;14.45;57.19;95812.06;4973610;28;20436;-24
2023/12/23 02:37:01;;;;;;;11.52;3.15;;;;;;;14.41;57.09;95811.50;4973680;28;20031;-24
2023/12/23 02:39:26;;;;;;;14.13;4.15;;;;;;;14.52;56.85;95808.22;4973761;28;20403;-24
2023/12/23 02:41:51;;;;;;;9.38;2.90;;;;;;;14.49;56.74;95807.19;4978280;28;20029;-24
2023/12/23 02:44:17;;;;;;;11.80;3.22;;;;;;;14.51;56.61;95812.94;4982110;28;20058;-24
2023/12/23 02:46:42;;;;;;;13.27;4.00;;;;;;;14.44;56.92;95805.09;4973291;28;20062;-24
2023/12/23 02:49:08;;;;;;;10.52;3.17;;;;;;;14.50;56.75;95816.13;4972871;28;20047;-24
2023/12/23 02:51:33;;;;;;;10.50;3.40;;;;;;;14.45;56.84;95812.06;5008116;28;20116;-24
2023/12/23 02:53:59;;;;;;;9.48;3.15;;;;;;;14.37;57.06;95821.78;5033784;28;20037;-24
2023/12/23 02:56:24;;;;;;;6.85;2.70;;;;;;;14.54;56.40;95824.88;5034545;28;20025;-24
2023/12/23 02:58:49;;;;;;;14.52;4.57;;;;;;;14.43;56.63;95830.88;5040591;28;20390;-24
2023/12/23 03:01:19;;;;;;;14.43;4.05;;;;;;;14.51;56.38;95823.84;5033324;28;20389;-24
2023/12/23 03:03:44;;;;;;;19.80;5.28;;;;;;;14.56;56.25;95825.19;5034906;28;20022;-24
2023/12/23 03:06:15;;;;;;;10.93;3.28;;;;;;;14.46;56.50;95831.94;5033498;28;20485;-24
2023/12/23 03:08:41;;;;;;;11.07;2.78;;;;;;;14.50;56.70;95833.25;5034243;28;20026;-24
2023/12/23 03:11:08;;;;;;;11.75;2.90;;;;;;;14.45;56.58;95841.34;5036906;28;20025;-24
2023/12/23 03:13:33;;;;;;;12.70;3.63;;;;;;;14.47;56.32;95849.78;5040117;28;20025;-24
2023/12/23 03:15:59;;;;;;;11.85;3.30;;;;;;;14.50;56.15;95852.34;5045540;28;20105;-24
2023/12/23 03:18:24;;;;;;;8.23;3.10;;;;;;;14.41;56.34;95860.59;5037862;28;20467;-24
2023/12/23 03:20:50;;;;;;;9.63;3.45;;;;;;;14.37;56.61;95854.53;5045670;28;20490;-24
2023/12/23 03:23:16;;;;;;;12.65;3.40;;;;;;;14.35;56.60;95860.44;5037752;28;20022;-24
2023/12/23 03:25:42;;;;;;;11.45;3.83;;;;;;;14.37;56.68;95838.16;5037703;28;20032;-24
2023/12/23 03:28:08;;;;;;;12.10;3.92;;;;;;;14.29;56.79;95851.41;5044986;28;20032;-24
2023/12/23 03:30:33;;;;;;;10.70;4.00;;;;;;;14.52;56.14;95839.00;5037029;28;20024;-24
2023/12/23 03:32:58;;;;;;;10.15;3.67;;;;;;;14.44;56.35;95840.56;5037648;28;20036;-24
2023/12/23 03:35:24;;;;;;;11.02;3.47;;;;;;;14.38;56.29;95839.66;5037777;28;20035;-24
2023/12/23 03:37:49;;;;;;;12.82;4.22;;;;;;;14.45;56.19;95844.81;5037347;28;20089;-23
2023/12/23 03:40:15;;;;;;;7.13;3.08;;;;;;;14.33;56.34;95854.72;5037500;28;20096;-24
2023/12/23 03:42:40;;;;;;;10.80;3.28;;;;;;;14.50;55.89;95868.72;5047885;28;20421;-24
2023/12/23 03:45:07;;;;;;;9.15;3.17;;;;;;;14.33;56.53;95862.16;5047808;28;20017;-24
2023/12/23 03:47:34;;;;;;;10.98;3.60;;;;;;;14.51;56.02;95867.50;5037399;28;20017;-24
2023/12/23 03:50:00;;;;;;;10.50;3.95;;;;;;;14.34;56.50;95869.09;5037156;28;20045;-24
2023/12/23 03:52:25;;;;;;;12.95;3.63;;;;;;;14.43;56.19;95862.88;5037160;28;20104;-24
2023/12/23 03:54:51;;;;;;;11.00;3.13;;;;;;;14.43;56.52;95866.34;5043507;28;20075;-24
2023/12/23 03:57:16;;;;;;;13.15;3.55;;;;;;;14.43;56.33;95857.41;5043060;28;20017;-24
2023/12/23 03:59:42;;;;;;;12.25;4.53;;;;;;;14.35;56.29;95851.50;5037868;28;20017;-24
2023/12/23 04:02:07;;;;;;;12.70;3.72;;;;;;;14.33;56.70;95856.69;5044510;28;20021;-24
2023/12/23 04:04:36;;;;;;;9.45;2.95;;;;;;;14.38;56.11;95856.03;5037083;28;20104;-24
2023/12/23 04:07:02;;;;;;;7.45;3.17;;;;;;;14.31;56.67;95857.16;5038992;28;20463;-24
2023/12/23 04:09:28;;;;;;;10.07;3.05;;;;;;;14.36;56.49;95850.28;5040854;28;20056;-24
2023/12/23 04:11:53;;;;;;;13.25;3.30;;;;;;;14.42;56.05;95858.63;5044556;28;20113;-24
2023/12/23 04:14:19;;;;;;;8.80;3.00;;;;;;;14.53;55.95;95851.41;5036946;28;20083;-24
2023/12/23 04:16:45;;;;;;;9.73;2.90;;;;;;;14.31;56.55;95857.16;5037140;28;20052;-24
2023/12/23 04:19:10;;;;;;;14.38;3.03;;;;;;;14.24;56.78;95854.75;5040006;28;20016;-24
2023/12/23 04:21:36;;;;;;;10.88;3.15;;;;;;;14.17;56.98;95868.00;5041025;28;20066;-24
2023/12/23 04:24:02;;;;;;;10.75;3.05;;;;;;;14.42;56.41;95873.03;5043459;28;20073;-24
2023/12/23 04:26:29;;;;;;;13.70;4.38;;;;;;;14.25;56.75;95867.19;5040243;28;20032;-24
2023/12/23 04:28:54;;;;;;;9.60;2.92;;;;;;;14.35;56.65;95879.53;5039274;28;20017;-24
2023/12/23 04:31:19;;;;;;;10.05;2.55;;;;;;;14.37;56.53;95876.34;5037021;28;20066;-24
2023/12/23 04:33:45;;;;;;;8.43;3.63;;;;;;;14.30;56.54;95882.91;5036409;28;20112;-24
2023/12/23 04:36:11;;;;;;;8.20;3.00;;;;;;;14.10;57.21;95874.53;5036431;28;20025;-24
2023/12/23 04:38:38;;;;;;;13.85;3.08;;;;;;;14.22;56.65;95881.72;5042991;28;20064;-24
2023/12/23 04:41:04;;;;;;;7.25;2.92;;;;;;;14.42;56.38;95888.63;5042743;28;20053;-24
2023/12/23 04:43:30;;;;;;;7.05;2.90;;;;;;;14.41;56.31;95890.59;5044482;28;20060;-24
2023/12/23 04:45:56;;;;;;;9.32;2.55;;;;;;;14.25;56.74;95885.50;5035655;28;20034;-24
2023/12/23 04:48:22;;;;;;;11.13;3.00;;;;;;;14.31;56.58;95889.88;5036314;28;20025;-24
2023/12/23 04:50:47;;;;;;;14.77;2.97;;;;;;;14.32;56.51;95896.09;5042921;28;20028;-24
2023/12/23 04:53:12;;;;;;;9.02;2.65;;;;;;;14.23;56.65;95893.41;5042057;28;20075;-24
2023/12/23 04:55:38;;;;;;;11.60;3.40;;;;;;;14.29;56.57;95895.03;5036734;28;20017;-24
2023/12/23 04:58:03;;;;;;;8.63;2.83;;;;;;;14.44;56.24;95886.19;5035389;28;20018;-24
2023/12/23 05:00:29;;;;;;;10.48;3.38;;;;;;;14.39;56.14;95884.81;5036385;28;20022;-24
2023/12/23 05:02:54;;;;;;;11.90;3.35;;;;;;;14.40;56.28;95883.63;5045584;28;20105;-24
2023/12/23 05:05:20;;;;;;;12.73;2.90;;;;;;;14.46;55.87;95886.50;5040351;28;20028;-24
2023/12/23 05:07:46;;;;;;;8.60;2.38;;;;;;;14.53;55.87;95891.59;5042765;28;20025;-24
2023/12/23 05:10:12;;;;;;;10.55;3.65;;;;;;;14.27;56.37;95888.53;5035691;28;20017;-24
2023/12/23 05:12:37;;;;;;;11.43;3.10;;;;;;;14.42;55.90;95902.28;5035114;28;20378;-24
2023/12/23 05:15:03;;;;;;;11.23;3.08;;;;;;;14.30;56.41;95903.97;5036627;28;20075;-24
2023/12/23 05:17:29;;;;;;;9.90;2.80;;;;;;;14.22;56.85;95902.78;5042510;28;20037;-24
2023/12/23 05:19:56;;;;;;;15.13;3.75;;;;;;;14.37;56.23;95900.91;5035754;28;20383;-24
2023/12/23 05:22:21;;;;;;;9.57;3.03;;;;;;;14.30;56.71;95895.78;5035466;28;20387;-24
2023/12/23 05:24:48;;;;;;;9.60;3.22;;;;;;;14.35;56.40;95892.41;5034982;28;20112;-24
2023/12/23 05:27:14;;;;;;;14.30;2.95;;;;;;;14.21;56.76;95893.13;5036208;28;20039;-24
2023/12/23 05:29:39;;;;;;;14.13;3.15;;;;;;;14.37;56.30;95895.44;5040277;28;20024;-24
2023/12/23 05:32:05;;;;;;;14.63;3.50;;;;;;;14.36;56.49;95891.19;5037618;28;20029;-24
2023/12/23 05:34:31;;;;;;;10.52;2.85;;;;;;;14.20;57.13;95905.25;5041640;28;20032;-24
2023/12/23 05:36:56;;;;;;;7.88;3.20;;;;;;;14.43;56.53;95912.72;5034899;28;20048;-24
2023/12/23 05:39:22;;;;;;;11.32;2.95;;;;;;;14.48;56.50;95920.25;5035049;28;20021;-24
2023/12/23 05:41:47;;;;;;;9.30;2.60;;;;;;;14.33;57.36;95922.91;5035406;28;20017;-24
2023/12/23 05:44:12;;;;;;;11.73;3.72;;;;;;;14.41;57.10;95928.81;5042728;28;20044;-24
2023/12/23 05:46:38;;;;;;;17.23;3.53;;;;;;;14.45;56.97;95932.13;5042351;28;20021;-23
2023/12/23 05:49:03;;;;;;;9.63;2.80;;;;;;;14.29;57.55;95925.03;5034177;28;20045;-24
2023/12/23 05:51:29;;;;;;;12.65;3.47;;;;;;;14.45;57.16;95925.91;5035716;28;20014;-24
2023/12/23 05:53:54;;;;;;;10.07;3.42;;;;;;;14.32;57.50;95928.81;5034282;28;20501;-24
2023/12/23 05:56:20;;;;;;;12.50;3.13;;;;;;;14.39;57.76;95928.47;5034602;28;20375;-24
2023/12/23 05:58:45;;;;;;;13.02;3.13;;;;;;;14.32;58.04;95924.13;5037290;28;20072;-24
2023/12/23 06:01:11;;;;;;;12.45;3.65;;;;;;;14.37;58.15;95941.81;5044776;28;20023;-24
2023/12/23 06:03:36;;;;;;;14.73;3.50;;;;;;;14.33;58.36;95936.56;5037064;28;20017;-24
2023/12/23 06:06:04;;;;;;;11.35;3.17;;;;;;;14.36;58.12;95945.75;5034375;28;20014;-24
2023/12/23 06:08:30;;;;;;;15.27;3.83;;;;;;;14.34;58.04;95943.50;5034271;28;20052;-24
2023/12/23 06:10:55;;;;;;;8.07;3.20;;;;;;;14.36;58.00;95956.66;5034712;28;20031;-24
2023/12/23 06:13:21;;;;;;;13.95;3.55;;;;;;;14.36;58.08;95956.66;5041693;28;20116;-24
2023/12/23 06:15:46;;;;;;;11.23;3.45;;;;;;;14.26;58.51;95947.03;5035553;28;20024;-24
2023/12/23 06:18:12;;;;;;;9.45;3.40;;;;;;;14.24;58.43;95946.72;5034626;28;20488;-24
2023/12/23 06:20:37;;;;;;;12.18;3.53;;;;;;;14.25;58.42;95942.78;5042004;28;20087;-24
2023/12/23 06:23:03;;;;;;;12.02;4.07;;;;;;;14.22;58.53;95949.16;5035448;28;20022;-24
2023/12/23 06:25:29;;;;;;;9.57;3.33;;;;;;;14.25;58.37;95954.44;5046214;28;20072;-24
2023/12/23 06:27:55;;;;;;;13.50;3.95;;;;;;;14.41;58.34;95947.13;5037500;28;20025;-23
2023/12/23 06:30:20;;;;;;;12.20;3.53;;;;;;;14.27;58.64;95943.84;5041418;28;20474;-24
2023/12/23 06:32:46;;;;;;;11.05;4.60;;;;;;;14.33;58.58;95955.66;5034601;28;20533;-24
2023/12/23 06:35:11;;;;;;;11.68;4.88;;;;;;;14.21;58.77;95953.88;5034341;28;20028;-24
2023/12/23 06:37:37;;;;;;;14.32;5.30;;;;;;;14.38;58.29;95960.44;5034321;28;20032;-24
2023/12/23 06:40:02;;;;;;;10.43;4.30;;;;;;;14.33;58.48;95957.63;5041373;28;20017;-24
2023/12/23 06:42:28;;;;;;;10.55;4.38;;;;;;;14.20;58.90;95970.69;5041771;28;20025;-24
2023/12/23 06:44:53;;;;;;;13.05;4.45;;;;;;;14.30;58.29;95969.44;5034079;28;20087;-24
2023/12/23 06:47:19;;;;;;;14.05;4.50;;;;;;;14.19;58.82;95969.94;5034633;28;20026;-24
2023/12/23 06:49:44;;;;;;;13.73;4.05;;;;;;;14.25;58.68;95976.28;5027620;28;20041;-24
2023/12/23 06:52:09;;;;;;;16.20;4.10;;;;;;;14.37;58.30;95980.00;5038297;28;20398;-23
2023/12/23 06:54:35;;;;;;;10.50;4.15;;;;;;;14.42;58.23;95982.16;5039322;28;20025;-24
2023/12/23 06:57:00;;;;;;;13.23;4.60;;;;;;;14.20;59.01;95981.59;5044435;28;20017;-24
2023/12/23 06:59:26;;;;;;;13.45;5.03;;;;;;;14.42;58.58;95993.06;5037924;28;20028;-23
2023/12/23 07:01:51;;;;;;;13.63;5.82;;;;;;;14.41;58.29;95997.00;5053298;28;20017;-24
2023/12/23 07:04:17;;;;;;;17.73;5.65;;;;;;;14.36;58.31;95989.41;5037579;28;20025;-24
2023/12/23 07:06:42;;;;;;;15.57;5.10;;;;;;;14.35;58.16;95976.97;5033066;28;20021;-24
2023/12/23 07:09:07;;;;;;;14.82;5.05;;;;;;;14.25;58.40;95972.78;5044468;28;20021;-24
2023/12/23 07:11:33;;;;;;;17.42;6.97;;;;;;;14.25;58.50;95986.44;5036927;28;20017;-24
2023/12/23 07:13:59;;;;;;;28.33;9.52;;;;;;;14.23;58.24;95997.78;5038617;28;20025;-24
2023/12/23 07:16:24;;;;;;;20.00;9.07;;;;;;;14.33;58.27;96002.03;5037927;28;20036;-24
2023/12/23 07:18:50;;;;;;;23.85;9.55;;;;;;;14.27;58.39;95998.38;5038231;28;20033;-24
2023/12/23 07:21:15;;;;;;;24.00;9.95;;;;;;;14.29;58.23;95997.94;5040653;28;20138;-24
2023/12/23 07:23:41;;;;;;;25.38;11.75;;;;;;;14.34;58.04;96003.50;5041866;28;20090;-24
2023/12/23 07:26:12;;;;;;;22.30;11.32;;;;;;;14.18;58.63;96000.41;5038689;28;20032;-24
2023/12/23 07:28:37;;;;;;;24.70;11.07;;;;;;;14.44;57.93;96008.97;5037823;28;20104;-24
2023/12/23 07:31:03;;;;;;;25.42;11.70;;;;;;;14.38;58.19;96008.81;5037851;28;20111;-24
2023/12/23 07:33:28;;;;;;;20.50;9.35;;;;;;;14.16;58.88;96008.28;5037680;28;20032;-24
2023/12/23 07:35:54;;;;;;;18.73;9.20;;;;;;;14.14;59.25;96022.38;5043984;28;20025;-24
2023/12/23 07:38:19;;;;;;;20.55;9.45;;;;;;;14.30;58.75;96019.28;5045077;28;20040;-24
2023/12/23 07:40:45;;;;;;;17.83;8.70;;;;;;;14.13;59.40;96020.84;5036867;28;20017;-24
2023/12/23 07:43:10;;;;;;;22.15;8.88;;;;;;;14.19;59.48;96016.31;5044990;28;20372;-24
2023/12/23 07:45:36;;;;;;;24.42;11.57;;;;;;;14.40;59.25;96027.47;5044207;28;20562;-24
2023/12/23 07:48:01;;;;;;;23.65;10.23;;;;;;;14.49;58.62;96039.09;5042579;28;20151;-24
2023/12/23 07:50:27;;;;;;;21.40;11.05;;;;;;;14.24;59.47;96036.72;5039010;28;20107;-24
2023/12/23 07:52:52;;;;;;;19.95;9.70;;;;;;;14.57;58.79;96032.09;5043068;28;20430;-24
2023/12/23 07:55:17;;;;;;;19.52;8.48;;;;;;;14.25;59.54;96038.25;5037159;28;20108;-24
2023/12/23 07:57:43;;;;;;;18.02;9.35;;;;;;;14.40;58.97;96044.59;5037253;28;20029;-23
2023/12/23 08:00:10;;;;;;;14.57;8.25;;;;;;;14.34;58.87;96047.16;5035981;28;20022;-24
2023/12/23 08:02:35;;;;;;;20.35;8.82;;;;;;;14.33;59.37;96061.28;5026008;28;20024;-24
2023/12/23 08:05:02;;;;;;;20.05;7.43;;;;;;;14.42;58.72;96068.69;5043618;28;20022;-24
2023/12/23 08:07:28;;;;;;;16.00;6.75;;;;;;;14.37;58.53;96067.31;5036285;28;20467;-24
2023/12/23 08:09:53;;;;;;;11.32;5.30;;;;;;;14.46;58.22;96064.59;5026545;28;20037;-24
2023/12/23 08:12:19;;;;;;;16.35;5.20;;;;;;;14.36;58.68;96065.78;5036367;28;20101;-24
2023/12/23 08:14:44;;;;;;;19.20;4.63;;;;;;;14.43;58.51;96070.22;5037044;28;20470;-24
2023/12/23 08:17:11;;;;;;;12.35;5.03;;;;;;;14.31;58.84;96080.06;5021488;28;20486;-24
2023/12/23 08:19:37;;;;;;;14.90;5.97;;;;;;;14.50;58.41;96076.09;5041046;28;20090;-24
2023/12/23 08:22:02;;;;;;;14.18;4.75;;;;;;;14.27;59.34;96087.66;5037416;28;20031;-24
2023/12/23 08:24:28;;;;;;;15.80;5.40;;;;;;;14.29;59.18;96094.16;5041219;28;20478;-24
2023/12/23 08:26:54;;;;;;;11.38;4.93;;;;;;;14.47;58.78;96087.91;5039524;28;20061;-24
2023/12/23 08:29:19;;;;;;;12.82;4.15;;;;;;;14.50;58.86;96097.16;5036363;28;20021;-24
2023/12/23 08:31:45;;;;;;;12.60;4.20;;;;;;;14.37;59.20;96100.03;5043413;28;20029;-24
2023/12/23 08:34:11;;;;;;;9.98;4.10;;;;;;;14.44;59.01;96105.22;5036464;28;20498;-24
2023/12/23 08:36:37;;;;;;;12.15;4.30;;;;;;;14.41;59.28;96111.59;5036384;28;20053;-24
2023/12/23 08:39:02;;;;;;;11.50;3.47;;;;;;;14.50;58.91;96110.78;5036554;28;20021;-24
2023/12/23 08:41:28;;;;;;;16.52;4.32;;;;;;;14.44;59.02;96118.84;5036402;28;20032;-24
2023/12/23 08:43:53;;;;;;;12.98;4.38;;;;;;;14.58;58.54;96120.19;5048457;28;20040;-24
2023/12/23 08:46:19;;;;;;;6.82;3.50;;;;;;;14.56;58.82;96117.16;5038728;28;20021;-24
2023/12/23 08:48:44;;;;;;;10.60;3.30;;;;;;;14.53;59.04;96123.53;5042634;28;20120;-24
2023/12/23 08:51:10;;;;;;;12.35;4.03;;;;;;;14.48;59.44;96133.09;5035529;28;20035;-24
2023/12/23 08:53:36;;;;;;;17.08;4.32;;;;;;;14.71;58.94;96128.94;5036368;28;20025;-24
2023/12/23 08:56:02;;;;;;;11.05;3.38;;;;;;;14.61;58.86;96122.72;5035390;28;20026;-24
2023/12/23 08:58:30;;;;;;;9.07;3.85;;;;;;;14.76;58.76;96136.50;5042642;28;20029;-24
2023/12/23 09:00:56;;;;;;;16.38;4.38;;;;;;;15.66;56.21;96150.16;5046022;28;20021;-24
2023/12/23 09:03:21;;;;;;;9.18;3.33;;;;;;;18.48;47.66;96145.19;5039536;28;20060;-24
2023/12/23 09:05:47;;;;;;;8.60;3.30;;;;;;;19.95;43.73;96151.97;5035351;28;20034;-24
2023/12/23 09:08:13;;;;;;;10.77;3.55;;;;;;;18.25;47.36;96157.97;5036048;28;20470;-24
2023/12/23 09:10:38;;;;;;;8.63;2.75;;;;;;;17.86;48.24;96150.03;5042020;28;20025;-24
2023/12/23 09:13:04;;;;;;;11.55;3.22;;;;;;;17.06;50.58;96165.13;5038025;28;20024;-24
2023/12/23 09:15:29;;;;;;;7.93;2.50;;;;;;;16.64;51.83;96170.19;5040159;28;20024;-24
2023/12/23 09:17:55;;;;;;;7.85;3.13;;;;;;;15.87;54.03;96164.75;5035892;28;20030;-24
2023/12/23 09:20:20;;;;;;;10.80;3.00;;;;;;;16.01;53.68;96167.53;5035672;28;20129;-24
2023/12/23 09:22:46;;;;;;;9.82;2.58;;;;;;;15.61;54.92;96178.13;5035592;28;20022;-24
2023/12/23 09:25:11;;;;;;;9.60;2.92;;;;;;;15.14;56.28;96184.28;5050440;28;20037;-24
2023/12/23 09:27:37;;;;;;;7.25;3.17;;;;;;;15.46;55.42;96178.78;5042330;28;20048;-24
2023/12/23 09:30:03;;;;;;;11.57;3.33;;;;;;;15.09;56.63;96175.47;5035351;28;20436;-24
2023/12/23 09:32:29;;;;;;;12.40;3.53;;;;;;;15.02;56.77;96161.41;5032173;28;20428;-24
2023/12/23 09:34:54;;;;;;;10.38;3.17;;;;;;;15.01;56.65;96162.63;5034792;28;20110;-24
2023/12/23 09:37:20;;;;;;;7.97;2.80;;;;;;;15.05;56.84;96176.88;5035845;28;20025;-24
2023/12/23 09:39:46;;;;;;;11.18;3.67;;;;;;;14.89;57.13;96183.47;5039388;28;20119;-24
2023/12/23 09:42:11;;;;;;;7.32;3.10;;;;;;;15.01;56.69;96173.56;5037902;28;20124;-24
2023/12/23 09:44:37;;;;;;;11.32;3.22;;;;;;;14.98;56.87;96174.47;5034543;28;20029;-24
2023/12/23 09:47:04;;;;;;;10.23;2.63;;;;;;;14.96;57.25;96171.47;5035321;28;20026;-24
2023/12/23 09:49:30;;;;;;;7.75;3.35;;;;;;;14.92;57.27;96170.88;5034421;28;20400;-24
2023/12/23 09:51:58;;;;;;;8.10;2.88;;;;;;;14.89;57.40;96177.25;5023864;28;20025;-24
2023/12/23 09:54:27;;;;;;;8.90;3.42;;;;;;;14.85;57.55;96174.66;5041920;28;20026;-24
2023/12/23 09:56:52;;;;;;;8.98;3.03;;;;;;;15.13;56.77;96169.88;5041697;28;20044;-24
2023/12/23 09:59:19;;;;;;;8.43;3.47;;;;;;;15.06;56.78;96178.41;5034307;28;20478;-24
2023/12/23 10:01:44;;;;;;;7.38;3.00;;;;;;;15.00;57.02;96172.03;5042880;28;20029;-24
2023/12/23 10:04:10;;;;;;;7.78;2.50;;;;;;;15.09;57.18;96159.09;5034325;28;20037;-24
2023/12/23 10:06:36;;;;;;;11.23;2.97;;;;;;;15.22;56.75;96172.53;5034304;28;20017;-24
2023/12/23 10:09:01;;;;;;;12.48;3.78;;;;;;;15.35;55.97;96172.34;5037438;28;20017;-24
2023/12/23 10:11:29;;;;;;;10.98;2.80;;;;;;;15.23;56.53;96168.59;5038690;28;20021;-24
2023/12/23 10:13:56;;;;;;;8.55;2.70;;;;;;;15.08;56.77;96154.13;5034674;28;20036;-24
2023/12/23 10:16:21;;;;;;;7.97;3.22;;;;;;;15.26;56.47;96153.25;5034386;28;20057;-24
2023/12/23 10:18:47;;;;;;;8.35;2.67;;;;;;;15.24;56.49;96150.22;5035089;28;20051;-24
2023/12/23 10:21:12;;;;;;;6.68;2.65;;;;;;;15.13;56.57;96137.09;5034647;28;20026;-24
2023/12/23 10:23:38;;;;;;;12.23;2.58;;;;;;;15.08;56.18;96138.47;5041587;28;20024;-24
2023/12/23 10:26:03;;;;;;;9.70;3.47;;;;;;;15.08;56.43;96151.38;5049301;28;20474;-24
2023/12/23 10:28:29;;;;;;;9.70;3.03;;;;;;;15.25;56.04;96144.31;5034505;28;20033;-24
2023/12/23 10:31:03;;;;;;;9.88;3.28;;;;;;;15.24;55.89;96142.03;5033778;28;20025;-24
2023/12/23 10:33:38;;;;;;;8.85;2.60;;;;;;;15.24;56.02;96137.31;5034592;28;20056;-24
2023/12/23 10:36:05;;;;;;;8.00;2.58;;;;;;;15.04;56.79;96123.47;5040866;28;20025;-24
2023/12/23 10:38:33;;;;;;;8.13;2.47;;;;;;;15.05;56.93;96114.06;5036970;28;20037;-24
2023/12/23 10:41:28;;;;;;;6.20;2.60;;;;;;;15.10;56.78;96116.16;5037892;28;20495;-24
2023/12/23 10:43:55;;;;;;;7.88;2.97;;;;;;;15.21;56.38;96113.66;5012444;28;20041;-24
2023/12/23 10:46:21;;;;;;;10.73;3.20;;;;;;;15.16;56.57;96100.66;5034645;28;20482;-24
2023/12/23 10:48:47;;;;;;;11.82;2.67;;;;;;;15.03;57.06;96102.84;5036971;28;20052;-24
2023/12/23 10:51:15;;;;;;;9.40;2.53;;;;;;;15.12;56.70;96107.50;5037860;28;20029;-24
2023/12/23 10:53:41;;;;;;;6.88;2.45;;;;;;;15.04;56.88;96115.28;5033863;28;20036;-24
2023/12/23 10:56:09;;;;;;;6.50;2.42;;;;;;;15.00;56.84;96125.63;5033430;28;20087;-24
2023/12/23 10:58:35;;;;;;;10.98;2.92;;;;;;;15.03;57.06;96119.25;5034426;28;20032;-24
2023/12/23 11:01:00;;;;;;;9.27;2.97;;;;;;;15.10;57.09;96106.00;5044251;28;20459;-24
2023/12/23 11:03:29;;;;;;;6.80;3.05;;;;;;;15.13;56.89;96098.09;5044539;28;20022;-24
2023/12/23 11:05:56;;;;;;;8.63;3.47;;;;;;;15.09;57.17;96087.31;5034178;28;20024;-24
2023/12/23 11:08:24;;;;;;;8.52;3.35;;;;;;;15.04;57.14;96096.19;5033538;28;20018;-24
2023/12/23 11:10:51;;;;;;;7.75;3.30;;;;;;;15.20;56.98;96086.84;5033726;28;20045;-24
2023/12/23 11:13:19;;;;;;;10.43;3.35;;;;;;;15.25;56.72;96091.66;5034188;28;20022;-24
2023/12/23 11:15:46;;;;;;;8.70;3.75;;;;;;;15.09;57.07;96092.78;5041183;28;20474;-24
2023/12/23 11:18:12;;;;;;;14.48;4.00;;;;;;;15.06;57.25;96099.19;5036682;28;20036;-24
2023/12/23 11:20:49;;;;;;;10.02;3.50;;;;;;;15.09;56.97;96087.31;5038038;28;20021;-24